createdAt,value
2022-10-05T00:01:17.856Z,60.70
2022-10-05T00:03:47.114Z,60.80
2022-10-05T00:06:15.153Z,60.90
2022-10-05T00:08:43.745Z,61.00
2022-10-05T00:11:13.886Z,61.10
2022-10-05T00:13:41.933Z,61.10
2022-10-05T00:16:13.877Z,61.00
2022-10-05T00:18:42.028Z,60.80
2022-10-05T00:21:17.944Z,60.80
2022-10-05T00:23:45.869Z,60.70
2022-10-05T00:26:15.565Z,60.40
2022-10-05T00:28:46.042Z,60.30
2022-10-05T00:31:35.184Z,60.90
2022-10-05T00:34:03.203Z,60.40
2022-10-05T00:36:32.407Z,60.50
2022-10-05T00:39:01.560Z,60.50
2022-10-05T00:41:32.627Z,60.60
2022-10-05T00:44:16.709Z,60.60
2022-10-05T00:46:50.393Z,60.60
2022-10-05T00:49:25.609Z,60.50
2022-10-05T00:52:02.800Z,60.40
2022-10-05T00:54:34.694Z,60.50
2022-10-05T00:57:08.960Z,60.60
2022-10-05T00:59:43.800Z,60.60
2022-10-05T01:02:13.459Z,60.60
2022-10-05T01:04:45.209Z,60.80
2022-10-05T01:07:17.195Z,60.90
2022-10-05T01:09:50.258Z,61.50
2022-10-05T01:12:22.020Z,61.00
2022-10-05T01:14:53.597Z,60.70
2022-10-05T01:17:24.311Z,60.60
2022-10-05T01:20:03.737Z,60.40
2022-10-05T01:22:42.269Z,60.30
2022-10-05T01:25:21.982Z,60.30
2022-10-05T01:27:54.487Z,60.30
2022-10-05T01:30:23.121Z,60.70
2022-10-05T01:32:53.664Z,60.60
2022-10-05T01:35:27.235Z,60.50
2022-10-05T01:38:00.998Z,60.60
2022-10-05T01:40:32.084Z,60.60
2022-10-05T01:43:06.957Z,60.60
2022-10-05T01:45:42.937Z,60.60
2022-10-05T01:48:19.686Z,60.40
2022-10-05T01:50:51.836Z,60.50
2022-10-05T01:53:24.057Z,60.40
2022-10-05T01:55:56.067Z,60.20
2022-10-05T01:58:30.446Z,60.20
2022-10-05T02:01:01.731Z,60.20
2022-10-05T02:03:31.405Z,60.20
2022-10-05T02:06:01.154Z,60.40
2022-10-05T02:08:34.223Z,60.50
2022-10-05T02:11:03.544Z,60.40
2022-10-05T02:13:35.022Z,60.40
2022-10-05T02:16:04.247Z,60.40
2022-10-05T02:18:44.861Z,60.30
2022-10-05T02:21:12.692Z,60.30
2022-10-05T02:23:41.383Z,60.20
2022-10-05T02:26:10.133Z,60.20
2022-10-05T02:28:40.892Z,60.20
2022-10-05T02:31:10.416Z,60.30
2022-10-05T02:33:38.693Z,60.30
2022-10-05T02:36:12.153Z,60.40
2022-10-05T02:38:45.235Z,60.60
2022-10-05T02:41:17.938Z,60.60
2022-10-05T02:43:53.457Z,60.60
2022-10-05T02:46:29.013Z,60.60
2022-10-05T02:49:01.979Z,60.60
2022-10-05T02:51:34.592Z,60.70
2022-10-05T02:54:07.743Z,60.70
2022-10-05T02:56:38.357Z,60.80
2022-10-05T02:59:11.116Z,60.60
2022-10-05T03:01:42.489Z,60.70
2022-10-05T03:04:15.554Z,60.60
2022-10-05T03:06:48.037Z,60.60
2022-10-05T03:09:18.832Z,60.60
2022-10-05T03:11:49.377Z,60.50
2022-10-05T03:14:21.483Z,60.40
2022-10-05T03:16:56.071Z,60.50
2022-10-05T03:19:31.586Z,60.40
2022-10-05T03:22:02.789Z,60.50
2022-10-05T03:24:35.767Z,60.50
2022-10-05T03:27:06.353Z,60.50
2022-10-05T03:29:44.917Z,60.60
2022-10-05T03:32:17.517Z,60.60
2022-10-05T03:45:14.611Z,60.60
2022-10-05T03:51:10.355Z,60.70
2022-10-05T03:53:43.286Z,60.80
2022-10-05T03:56:23.597Z,60.80
2022-10-05T03:59:00.597Z,60.80
2022-10-05T04:01:48.307Z,60.70
2022-10-05T04:08:04.356Z,60.60
2022-10-05T04:17:24.013Z,60.60
2022-10-05T04:19:55.445Z,60.60
2022-10-05T04:22:31.335Z,60.60
2022-10-05T04:25:03.135Z,60.80
2022-10-05T04:27:33.237Z,60.90
2022-10-05T04:30:05.195Z,61.00
2022-10-05T04:32:37.562Z,61.10
2022-10-05T04:35:18.551Z,61.20
2022-10-05T04:37:48.390Z,61.30
2022-10-05T04:40:21.930Z,61.20
2022-10-05T04:42:55.688Z,61.10
2022-10-05T04:45:30.557Z,61.00
2022-10-05T04:48:31.600Z,61.20
2022-10-05T04:51:07.568Z,61.50
2022-10-05T04:53:36.848Z,61.80
2022-10-05T04:56:09.004Z,61.90
2022-10-05T04:58:49.010Z,61.90
2022-10-05T05:01:24.442Z,62.00
2022-10-05T05:04:09.997Z,61.90
2022-10-05T05:06:41.176Z,61.80
2022-10-05T05:09:16.241Z,61.60
2022-10-05T05:11:49.558Z,61.50
2022-10-05T05:14:26.656Z,61.50
2022-10-05T05:17:02.129Z,61.70
2022-10-05T05:19:34.788Z,61.80
2022-10-05T05:22:04.921Z,61.90
2022-10-05T05:24:41.938Z,61.90
2022-10-05T05:27:20.524Z,62.20
2022-10-05T05:29:53.887Z,62.30
2022-10-05T05:32:26.938Z,62.50
2022-10-05T05:35:02.353Z,62.40
2022-10-05T05:37:33.526Z,62.50
2022-10-05T05:40:04.638Z,62.70
2022-10-05T05:42:36.886Z,63.00
2022-10-05T05:45:09.230Z,63.20
2022-10-05T05:47:40.215Z,63.00
2022-10-05T05:50:18.594Z,62.70
2022-10-05T05:52:47.911Z,62.60
2022-10-05T05:55:18.950Z,62.60
2022-10-05T05:57:49.745Z,62.60
2022-10-05T06:00:21.673Z,62.60
2022-10-05T06:02:54.990Z,62.60
2022-10-05T06:05:28.778Z,62.80
2022-10-05T06:07:58.488Z,62.90
2022-10-05T06:10:29.339Z,63.10
2022-10-05T06:13:01.564Z,63.20
2022-10-05T06:15:31.973Z,63.20
2022-10-05T06:18:03.675Z,63.20
2022-10-05T06:20:36.700Z,63.30
2022-10-05T06:23:07.507Z,63.60
2022-10-05T06:25:38.795Z,63.70
2022-10-05T06:28:10.624Z,63.70
2022-10-05T06:30:46.039Z,63.80
2022-10-05T06:33:20.535Z,63.70
2022-10-05T06:35:54.080Z,63.80
2022-10-05T06:38:32.563Z,63.70
2022-10-05T06:41:05.260Z,63.60
2022-10-05T06:43:37.954Z,63.50
2022-10-05T06:46:09.186Z,63.30
2022-10-05T06:48:47.090Z,63.20
2022-10-05T06:51:23.292Z,63.10
2022-10-05T06:53:57.754Z,63.00
2022-10-05T06:56:29.266Z,63.50
2022-10-05T06:59:00.591Z,62.90
2022-10-05T07:01:39.857Z,62.90
2022-10-05T07:04:20.104Z,62.90
2022-10-05T07:06:52.135Z,62.90
2022-10-05T07:09:26.736Z,62.90
2022-10-05T07:12:05.414Z,62.90
2022-10-05T07:14:42.591Z,63.00
2022-10-05T07:17:17.340Z,63.10
2022-10-05T07:19:52.532Z,63.10
2022-10-05T07:22:26.625Z,63.20
2022-10-05T07:25:00.335Z,63.20
2022-10-05T07:27:30.150Z,63.20
2022-10-05T07:30:00.402Z,63.20
2022-10-05T07:32:33.274Z,63.20
2022-10-05T07:35:06.043Z,63.20
2022-10-05T07:37:55.585Z,63.30
2022-10-05T07:40:27.686Z,63.40
2022-10-05T07:43:10.362Z,63.40
2022-10-05T07:45:41.097Z,63.50
2022-10-05T07:48:15.241Z,63.50
2022-10-05T07:50:54.464Z,63.50
2022-10-05T07:53:25.518Z,63.50
2022-10-05T07:55:54.544Z,63.40
2022-10-05T07:58:27.636Z,63.50
2022-10-05T08:01:04.127Z,63.40
2022-10-05T08:03:36.110Z,63.50
2022-10-05T08:06:06.674Z,63.40
2022-10-05T08:08:39.548Z,63.30
2022-10-05T08:11:14.597Z,63.10
2022-10-05T08:13:47.651Z,63.00
2022-10-05T08:16:16.787Z,63.00
2022-10-05T08:18:50.028Z,63.00
2022-10-05T08:21:21.968Z,63.00
2022-10-05T08:23:51.691Z,62.80
2022-10-05T08:26:23.621Z,62.80
2022-10-05T08:28:56.318Z,62.70
2022-10-05T08:31:26.828Z,62.50
2022-10-05T08:33:58.653Z,62.30
2022-10-05T08:36:34.815Z,62.30
2022-10-05T08:39:04.227Z,62.30
2022-10-05T08:41:54.282Z,62.10
2022-10-05T08:44:46.184Z,62.10
2022-10-05T08:47:20.572Z,62.10
2022-10-05T08:50:18.600Z,62.10
2022-10-05T08:53:00.557Z,62.20
2022-10-05T08:55:32.112Z,62.10
2022-10-05T08:58:14.773Z,61.90
2022-10-05T09:00:48.912Z,61.70
2022-10-05T09:03:22.438Z,61.70
2022-10-05T09:06:07.160Z,61.70
2022-10-05T09:08:59.154Z,61.50
2022-10-05T09:11:34.002Z,61.10
2022-10-05T09:14:15.483Z,60.80
2022-10-05T09:16:51.322Z,60.60
2022-10-05T09:19:33.974Z,60.10
2022-10-05T09:22:06.736Z,59.70
2022-10-05T09:24:48.493Z,59.60
2022-10-05T09:27:19.128Z,59.10
2022-10-05T09:30:01.911Z,58.90
2022-10-05T09:32:54.995Z,58.80
2022-10-05T09:35:33.119Z,58.50
2022-10-05T09:38:11.853Z,58.30
2022-10-05T09:40:50.749Z,58.80
2022-10-05T09:43:33.576Z,58.40
2022-10-05T09:46:19.366Z,58.50
2022-10-05T09:48:53.356Z,58.00
2022-10-05T09:51:36.006Z,58.10
2022-10-05T09:54:25.807Z,58.10
2022-10-05T09:57:04.163Z,58.00
2022-10-05T09:59:49.681Z,57.80
2022-10-05T10:02:27.659Z,57.70
2022-10-05T10:05:05.649Z,57.80
2022-10-05T10:07:42.424Z,57.70
2022-10-05T10:10:29.431Z,57.70
2022-10-05T10:13:06.168Z,57.50
2022-10-05T10:15:38.442Z,57.30
2022-10-05T10:18:18.817Z,57.20
2022-10-05T10:21:01.541Z,57.00
2022-10-05T10:23:50.660Z,57.00
2022-10-05T10:26:33.300Z,56.80
2022-10-05T10:29:20.814Z,56.70
2022-10-05T10:31:54.107Z,56.50
2022-10-05T10:34:45.397Z,56.50
2022-10-05T10:37:33.657Z,56.60
2022-10-05T10:40:08.290Z,56.20
2022-10-05T10:42:40.448Z,56.10
2022-10-05T10:45:20.663Z,56.00
2022-10-05T10:47:52.763Z,56.10
2022-10-05T10:50:41.475Z,56.30
2022-10-05T10:53:19.712Z,56.00
2022-10-05T10:55:51.761Z,55.70
2022-10-05T10:58:49.910Z,55.70
2022-10-05T11:01:27.861Z,55.50
2022-10-05T11:04:25.887Z,55.50
2022-10-05T11:07:12.686Z,55.30
2022-10-05T11:09:54.655Z,55.20
2022-10-05T11:12:35.841Z,55.20
2022-10-05T11:15:10.097Z,55.00
2022-10-05T11:17:46.944Z,54.80
2022-10-05T11:20:35.636Z,54.50
2022-10-05T11:23:15.304Z,54.40
2022-10-05T11:25:50.087Z,54.40
2022-10-05T11:28:36.278Z,54.30
2022-10-05T11:31:19.122Z,53.90
2022-10-05T11:34:05.281Z,53.50
2022-10-05T11:36:49.118Z,53.50
2022-10-05T11:39:38.771Z,53.30
2022-10-05T11:42:39.663Z,52.90
2022-10-05T11:45:21.808Z,52.80
2022-10-05T11:48:16.304Z,52.70
2022-10-05T11:50:50.869Z,52.90
2022-10-05T11:53:24.332Z,52.60
2022-10-05T11:55:58.068Z,52.70
2022-10-05T11:58:29.438Z,52.80
2022-10-05T12:01:02.771Z,52.60
2022-10-05T12:03:44.035Z,52.70
2022-10-05T12:06:17.021Z,52.70
2022-10-05T12:08:53.126Z,52.50
2022-10-05T12:11:34.277Z,52.10
2022-10-05T12:14:06.242Z,51.50
2022-10-05T12:16:38.895Z,51.40
2022-10-05T12:19:10.927Z,51.40
2022-10-05T12:21:43.042Z,51.60
2022-10-05T12:24:15.288Z,51.20
2022-10-05T12:26:47.253Z,51.20
2022-10-05T12:29:18.044Z,50.80
2022-10-05T12:31:55.804Z,50.80
2022-10-05T12:34:27.908Z,50.70
2022-10-05T12:37:03.898Z,50.80
2022-10-05T12:39:38.106Z,51.10
2022-10-05T12:42:12.809Z,51.30
2022-10-05T12:44:49.829Z,51.20
2022-10-05T12:47:23.869Z,51.20
2022-10-05T12:49:58.920Z,51.10
2022-10-05T12:52:38.253Z,51.20
2022-10-05T12:55:11.599Z,51.30
2022-10-05T12:57:44.154Z,51.00
2022-10-05T13:00:18.946Z,51.30
2022-10-05T13:02:52.109Z,51.10
2022-10-05T13:05:24.964Z,50.70
2022-10-05T13:08:13.014Z,50.70
2022-10-05T13:10:44.354Z,50.70
2022-10-05T13:13:17.002Z,50.80
2022-10-05T13:15:52.673Z,50.90
2022-10-05T13:18:27.308Z,50.60
2022-10-05T13:21:02.780Z,50.10
2022-10-05T13:23:38.441Z,50.20
2022-10-05T13:26:08.815Z,50.40
2022-10-05T13:28:38.808Z,50.50
2022-10-05T13:31:08.308Z,50.10
2022-10-05T13:33:55.353Z,50.00
2022-10-05T13:36:25.813Z,50.20
2022-10-05T13:39:10.650Z,50.70
2022-10-05T13:41:50.780Z,50.70
2022-10-05T13:44:21.079Z,50.60
2022-10-05T13:46:49.847Z,50.70
2022-10-05T13:49:26.373Z,50.50
2022-10-05T13:51:57.418Z,50.10
2022-10-05T13:54:31.399Z,50.00
2022-10-05T13:57:04.034Z,50.00
2022-10-05T13:59:34.190Z,49.90
2022-10-05T14:02:03.501Z,49.90
2022-10-05T14:04:44.433Z,49.90
2022-10-05T14:07:21.790Z,49.70
2022-10-05T14:09:50.289Z,50.50
2022-10-05T14:12:21.432Z,49.80
2022-10-05T14:14:50.711Z,50.00
2022-10-05T14:17:32.880Z,50.10
2022-10-05T14:20:04.160Z,50.00
2022-10-05T14:22:41.656Z,50.10
2022-10-05T14:25:17.118Z,50.00
2022-10-05T14:27:50.610Z,50.20
2022-10-05T14:30:20.325Z,50.40
2022-10-05T14:32:50.478Z,50.50
2022-10-05T14:35:22.164Z,50.60
2022-10-05T14:37:57.254Z,50.40
2022-10-05T14:40:26.960Z,50.30
2022-10-05T14:42:54.782Z,50.10
2022-10-05T14:45:23.864Z,50.20
2022-10-05T14:47:52.929Z,50.30
2022-10-05T14:50:26.214Z,50.40
2022-10-05T14:53:16.672Z,50.70
2022-10-05T14:55:52.987Z,50.80
2022-10-05T14:58:29.155Z,50.80
2022-10-05T15:00:59.437Z,50.80
2022-10-05T15:03:31.338Z,50.90
2022-10-05T15:06:02.146Z,50.80
2022-10-05T15:08:42.514Z,50.80
2022-10-05T15:11:17.493Z,50.80
2022-10-05T15:13:47.557Z,50.90
2022-10-05T15:16:18.657Z,51.10
2022-10-05T15:18:50.022Z,51.10
2022-10-05T15:21:31.143Z,51.20
2022-10-05T15:24:02.119Z,51.40
2022-10-05T15:26:36.257Z,51.60
2022-10-05T15:29:11.028Z,51.70
2022-10-05T15:31:41.958Z,51.80
2022-10-05T15:34:12.877Z,51.80
2022-10-05T15:36:44.227Z,51.80
2022-10-05T15:39:16.720Z,51.90
2022-10-05T15:41:52.953Z,51.80
2022-10-05T15:44:27.463Z,51.90
2022-10-05T15:46:58.208Z,51.90
2022-10-05T15:49:30.202Z,52.00
2022-10-05T15:52:03.384Z,52.00
2022-10-05T15:54:57.873Z,52.00
2022-10-05T15:57:26.867Z,52.00
2022-10-05T15:59:58.880Z,52.10
2022-10-05T16:02:44.541Z,52.20
2022-10-05T16:05:41.666Z,52.20
2022-10-05T16:08:30.854Z,52.30
2022-10-05T16:10:59.132Z,52.30
2022-10-05T16:13:30.113Z,52.40
2022-10-05T16:16:01.975Z,52.50
2022-10-05T16:18:37.272Z,52.50
2022-10-05T16:21:10.938Z,52.50
2022-10-05T16:23:44.474Z,52.60
2022-10-05T16:26:19.265Z,52.70
2022-10-05T16:28:51.002Z,52.80
2022-10-05T16:31:21.454Z,52.80
2022-10-05T16:33:55.782Z,52.90
2022-10-05T16:36:28.261Z,53.60
2022-10-05T16:39:01.235Z,53.00
2022-10-05T16:41:34.894Z,53.20
2022-10-05T16:44:08.458Z,53.20
2022-10-05T16:46:40.751Z,53.20
2022-10-05T16:49:14.296Z,53.40
2022-10-05T16:51:47.141Z,53.40
2022-10-05T16:54:19.316Z,53.40
2022-10-05T16:56:50.964Z,53.40
2022-10-05T16:59:36.080Z,53.40
2022-10-05T17:02:09.538Z,53.60
2022-10-05T17:04:44.946Z,53.60
2022-10-05T17:07:21.348Z,53.70
2022-10-05T17:10:04.649Z,53.80
2022-10-05T17:12:42.894Z,53.90
2022-10-05T17:15:26.304Z,54.00
2022-10-05T17:18:01.318Z,54.20
2022-10-05T17:20:44.115Z,54.40
2022-10-05T17:23:23.923Z,54.50
2022-10-05T17:25:55.170Z,54.70
2022-10-05T17:28:24.958Z,54.80
2022-10-05T17:31:08.286Z,55.00
2022-10-05T17:33:58.988Z,55.10
2022-10-05T17:36:37.481Z,55.20
2022-10-05T17:39:22.555Z,55.30
2022-10-05T17:41:51.879Z,55.50
2022-10-05T17:44:21.294Z,55.60
2022-10-05T17:46:50.478Z,55.70
2022-10-05T17:49:23.132Z,55.90
2022-10-05T17:52:16.335Z,56.00
2022-10-05T17:55:32.673Z,56.10
2022-10-05T17:58:22.804Z,56.30
2022-10-05T18:01:08.705Z,56.50
2022-10-05T18:03:41.316Z,56.50
2022-10-05T18:06:42.469Z,56.60
2022-10-05T18:09:32.140Z,56.70
2022-10-05T18:12:17.837Z,56.80
2022-10-05T18:14:57.579Z,57.00
2022-10-05T18:17:48.458Z,57.20
2022-10-05T18:20:19.603Z,57.40
2022-10-05T18:22:47.908Z,57.40
2022-10-05T18:25:29.221Z,57.40
2022-10-05T18:28:07.901Z,57.30
2022-10-05T18:30:41.657Z,57.20
2022-10-05T18:33:53.302Z,57.10
2022-10-05T18:36:55.579Z,57.30
2022-10-05T18:39:31.096Z,57.40
2022-10-05T18:42:03.841Z,57.50
2022-10-05T18:44:35.411Z,57.50
2022-10-05T18:47:08.283Z,57.30
2022-10-05T18:49:40.409Z,57.30
2022-10-05T18:52:12.810Z,57.40
2022-10-05T19:01:03.594Z,57.90
2022-10-05T19:03:37.851Z,58.10
2022-10-05T19:06:13.400Z,57.90
2022-10-05T19:08:47.251Z,58.00
2022-10-05T19:11:19.021Z,58.10
2022-10-05T19:13:52.037Z,58.40
2022-10-05T19:16:32.595Z,58.50
2022-10-05T19:19:08.980Z,58.70
2022-10-05T19:21:41.567Z,58.80
2022-10-05T19:24:14.936Z,58.80
2022-10-05T19:26:53.681Z,58.60
2022-10-05T19:29:27.280Z,58.60
2022-10-05T19:31:57.977Z,58.90
2022-10-05T19:34:33.941Z,59.20
2022-10-05T19:37:05.416Z,59.20
2022-10-05T19:39:37.375Z,59.10
2022-10-05T19:42:15.434Z,59.10
2022-10-05T19:44:52.319Z,59.20
2022-10-05T19:47:29.323Z,59.30
2022-10-05T19:50:03.548Z,59.20
2022-10-05T19:52:39.582Z,59.30
2022-10-05T19:55:12.833Z,59.30
2022-10-05T19:57:47.091Z,59.50
2022-10-05T20:00:20.807Z,59.70
2022-10-05T20:02:50.695Z,59.90
2022-10-05T20:05:20.158Z,60.00
2022-10-05T20:07:48.096Z,60.10
2022-10-05T20:10:24.426Z,60.40
2022-10-05T20:12:53.131Z,60.50
2022-10-05T20:15:39.442Z,60.50
2022-10-05T20:18:42.923Z,60.60
2022-10-05T20:21:25.603Z,60.50
2022-10-05T20:24:08.564Z,60.60
2022-10-05T20:26:58.074Z,60.60
2022-10-05T20:29:26.012Z,60.60
2022-10-05T20:31:53.919Z,61.20
2022-10-05T20:34:23.180Z,60.60
2022-10-05T20:36:51.323Z,60.60
2022-10-05T20:39:21.511Z,60.60
2022-10-05T20:41:52.592Z,60.60
2022-10-05T20:44:20.558Z,60.40
2022-10-05T20:46:59.362Z,60.40
2022-10-05T20:49:35.886Z,60.40
2022-10-05T20:52:10.250Z,60.40
2022-10-05T20:54:39.965Z,60.40
2022-10-05T20:57:08.247Z,60.40
2022-10-05T20:59:36.758Z,60.30
2022-10-05T21:02:04.633Z,60.30
2022-10-05T21:04:40.022Z,60.20
2022-10-05T21:07:09.076Z,60.20
2022-10-05T21:09:38.426Z,60.00
2022-10-05T21:12:08.857Z,60.00
2022-10-05T21:14:37.794Z,60.00
2022-10-05T21:17:06.196Z,60.20
2022-10-05T21:19:38.397Z,60.20
2022-10-05T21:22:07.695Z,60.10
2022-10-05T21:24:36.066Z,60.10
2022-10-05T21:27:05.843Z,60.20
2022-10-05T21:29:36.425Z,60.20
2022-10-05T21:32:08.332Z,60.20
2022-10-05T21:34:36.270Z,60.00
2022-10-05T21:37:04.122Z,60.00
2022-10-05T21:39:33.528Z,60.10
2022-10-05T21:42:01.546Z,60.10
2022-10-05T21:44:29.341Z,60.00
2022-10-05T21:46:58.518Z,60.00
2022-10-05T21:49:26.944Z,60.00
2022-10-05T21:51:55.062Z,60.00
2022-10-05T21:54:23.460Z,60.00
2022-10-05T21:56:52.230Z,60.00
2022-10-05T21:59:21.353Z,60.00
2022-10-05T22:01:49.189Z,60.00
2022-10-05T22:04:18.913Z,60.00
2022-10-05T22:06:46.678Z,60.00
2022-10-05T22:09:14.534Z,59.90
2022-10-05T22:11:42.409Z,59.80
2022-10-05T22:14:10.503Z,59.80
2022-10-05T22:16:39.093Z,59.80
2022-10-05T22:19:07.861Z,59.70
2022-10-05T22:21:43.412Z,59.70
2022-10-05T22:24:13.676Z,59.80
2022-10-05T22:26:42.603Z,59.80
2022-10-05T22:29:10.676Z,59.80
2022-10-05T22:31:39.344Z,59.70
2022-10-05T22:34:07.147Z,59.80
2022-10-05T22:36:35.445Z,60.00
2022-10-05T22:39:05.017Z,59.80
2022-10-05T22:41:32.844Z,59.70
2022-10-05T22:44:00.937Z,59.80
2022-10-05T22:46:28.864Z,59.80
2022-10-05T22:48:56.767Z,59.80
2022-10-05T22:51:24.743Z,59.80
2022-10-05T22:53:52.713Z,59.70
2022-10-05T22:56:21.911Z,59.70
2022-10-05T22:58:51.037Z,59.80
2022-10-05T23:01:19.691Z,59.80
2022-10-05T23:03:47.741Z,59.80
2022-10-05T23:06:17.004Z,59.70
2022-10-05T23:08:45.076Z,59.70
2022-10-05T23:11:13.930Z,59.80
2022-10-05T23:13:43.320Z,59.70
2022-10-05T23:16:12.090Z,59.60
2022-10-05T23:18:40.406Z,59.50
2022-10-05T23:21:09.047Z,59.50
2022-10-05T23:23:37.076Z,59.60
2022-10-05T23:26:05.583Z,59.70
2022-10-05T23:28:34.125Z,59.70
2022-10-05T23:31:04.339Z,59.60
2022-10-05T23:33:32.191Z,59.50
2022-10-05T23:36:00.673Z,59.50
2022-10-05T23:38:28.744Z,59.50
2022-10-05T23:40:58.656Z,59.40
2022-10-05T23:43:28.469Z,59.40
2022-10-05T23:45:56.786Z,59.30
2022-10-05T23:48:26.910Z,59.20
2022-10-05T23:50:55.752Z,59.70
2022-10-05T23:53:23.877Z,59.00
2022-10-05T23:55:52.070Z,59.20
2022-10-05T23:58:34.266Z,59.20
